createdAt,value
2022-07-26T00:00:10.983Z,86.58
2022-07-26T00:02:47.882Z,86.26
2022-07-26T00:05:19.024Z,86.42
2022-07-26T00:07:49.220Z,86.44
2022-07-26T00:10:19.219Z,86.43
2022-07-26T00:12:49.235Z,86.39
2022-07-26T00:15:19.684Z,86.55
2022-07-26T00:17:49.756Z,86.70
2022-07-26T00:20:19.694Z,86.62
2022-07-26T00:22:49.950Z,86.33
2022-07-26T00:25:20.162Z,86.18
2022-07-26T00:27:50.218Z,86.19
2022-07-26T00:30:20.005Z,86.34
2022-07-26T00:32:49.927Z,86.41
2022-07-26T00:35:20.518Z,86.34
2022-07-26T00:37:50.546Z,86.47
2022-07-26T00:40:20.543Z,86.81
2022-07-26T00:42:50.563Z,86.87
2022-07-26T00:45:20.604Z,87.02
2022-07-26T00:47:50.675Z,87.47
2022-07-26T00:50:20.614Z,87.28
2022-07-26T00:52:51.014Z,87.55
2022-07-26T00:55:21.146Z,88.07
2022-07-26T00:57:51.055Z,88.14
2022-07-26T01:00:21.582Z,88.75
2022-07-26T01:02:51.682Z,88.73
2022-07-26T01:05:21.620Z,88.58
2022-07-26T01:07:51.496Z,88.61
2022-07-26T01:10:21.313Z,88.55
2022-07-26T01:12:51.106Z,88.36
2022-07-26T01:15:20.832Z,88.65
2022-07-26T01:17:50.768Z,88.64
2022-07-26T01:20:20.552Z,88.66
2022-07-26T01:22:50.447Z,88.54
2022-07-26T01:25:20.285Z,88.30
2022-07-26T01:27:50.077Z,88.38
2022-07-26T01:30:19.918Z,88.41
2022-07-26T01:32:49.794Z,88.89
2022-07-26T01:35:19.615Z,88.68
2022-07-26T01:37:49.765Z,88.81
2022-07-26T01:40:19.664Z,88.67
2022-07-26T01:42:49.508Z,88.60
2022-07-26T01:45:19.652Z,88.50
2022-07-26T01:47:50.552Z,88.48
2022-07-26T01:50:20.467Z,89.13
2022-07-26T01:52:50.320Z,89.54
2022-07-26T01:55:20.289Z,89.66
2022-07-26T01:57:50.064Z,89.81
2022-07-26T02:00:20.107Z,89.77
2022-07-26T02:02:50.126Z,89.75
2022-07-26T02:05:20.115Z,89.59
2022-07-26T02:07:50.034Z,89.66
2022-07-26T02:10:20.563Z,89.99
2022-07-26T02:12:51.892Z,90.22
2022-07-26T02:15:21.702Z,90.15
2022-07-26T02:17:51.572Z,90.43
2022-07-26T02:20:21.439Z,91.16
2022-07-26T02:22:51.229Z,91.91
2022-07-26T02:25:21.092Z,92.18
2022-07-26T02:27:50.969Z,92.00
2022-07-26T02:30:20.784Z,91.98
2022-07-26T02:32:50.767Z,91.84
2022-07-26T02:35:20.711Z,91.71
2022-07-26T02:37:50.536Z,91.82
2022-07-26T02:40:20.363Z,91.90
2022-07-26T02:42:50.159Z,91.82
2022-07-26T02:45:20.320Z,91.58
2022-07-26T02:47:50.625Z,91.57
2022-07-26T02:50:20.622Z,91.61
2022-07-26T02:52:50.881Z,91.40
2022-07-26T02:55:20.987Z,91.26
2022-07-26T02:57:50.753Z,91.12
2022-07-26T03:00:21.459Z,91.05
2022-07-26T03:02:52.765Z,91.06
2022-07-26T03:05:22.840Z,91.18
2022-07-26T03:07:52.670Z,91.15
2022-07-26T03:10:22.475Z,91.12
2022-07-26T03:12:52.317Z,91.14
2022-07-26T03:15:22.816Z,91.13
2022-07-26T03:17:52.641Z,91.27
2022-07-26T03:20:22.417Z,91.11
2022-07-26T03:22:52.235Z,91.19
2022-07-26T03:25:22.165Z,91.23
2022-07-26T03:27:52.408Z,91.26
2022-07-26T03:30:24.897Z,91.30
2022-07-26T03:32:56.347Z,91.21
2022-07-26T03:35:26.855Z,91.02
2022-07-26T03:37:56.644Z,90.90
2022-07-26T03:40:26.562Z,90.77
2022-07-26T03:42:56.286Z,90.52
2022-07-26T03:45:26.265Z,90.20
2022-07-26T03:47:56.194Z,89.86
2022-07-26T03:50:26.019Z,89.76
2022-07-26T03:52:55.791Z,89.62
2022-07-26T03:55:43.106Z,89.49
2022-07-26T03:58:13.003Z,89.33
2022-07-26T04:00:42.865Z,89.06
2022-07-26T04:03:12.614Z,88.75
2022-07-26T04:05:48.578Z,88.54
2022-07-26T04:08:19.002Z,88.37
2022-07-26T04:10:51.561Z,88.20
2022-07-26T04:13:21.353Z,88.06
2022-07-26T04:15:51.257Z,87.97
2022-07-26T04:18:21.234Z,88.01
2022-07-26T04:20:54.473Z,87.86
2022-07-26T04:23:24.556Z,87.49
2022-07-26T04:25:54.573Z,86.97
2022-07-26T04:28:27.108Z,86.32
2022-07-26T04:30:57.125Z,85.98
2022-07-26T04:33:27.153Z,85.79
2022-07-26T04:35:57.111Z,85.26
2022-07-26T04:38:27.114Z,84.62
2022-07-26T04:40:58.311Z,84.37
2022-07-26T04:43:28.267Z,83.84
2022-07-26T04:45:58.834Z,83.55
2022-07-26T04:48:28.848Z,83.54
2022-07-26T04:50:58.662Z,83.08
2022-07-26T04:53:28.498Z,82.74
2022-07-26T04:55:58.253Z,82.61
2022-07-26T04:58:28.570Z,82.47
2022-07-26T05:01:13.948Z,82.28
2022-07-26T05:03:43.930Z,81.78
2022-07-26T05:06:13.896Z,81.35
2022-07-26T05:08:43.952Z,80.91
2022-07-26T05:11:13.986Z,80.57
2022-07-26T05:13:43.865Z,80.28
2022-07-26T05:16:13.544Z,80.11
2022-07-26T05:18:48.682Z,79.91
2022-07-26T05:21:20.055Z,79.49
2022-07-26T05:23:50.046Z,79.26
2022-07-26T05:26:19.812Z,79.22
2022-07-26T05:28:49.576Z,78.34
2022-07-26T05:31:19.424Z,77.99
2022-07-26T05:33:49.249Z,77.58
2022-07-26T05:36:19.776Z,77.31
2022-07-26T05:38:49.681Z,76.52
2022-07-26T05:41:19.928Z,76.30
2022-07-26T05:43:49.837Z,76.25
2022-07-26T05:46:19.914Z,76.00
2022-07-26T05:48:49.817Z,75.65
2022-07-26T05:51:19.622Z,75.24
2022-07-26T05:53:49.400Z,74.71
2022-07-26T05:56:20.774Z,73.92
2022-07-26T05:58:50.696Z,73.26
2022-07-26T06:01:20.565Z,73.11
2022-07-26T06:03:50.449Z,72.60
2022-07-26T06:06:20.559Z,72.38
2022-07-26T06:08:50.354Z,72.01
2022-07-26T06:11:20.363Z,71.74
2022-07-26T06:13:53.666Z,70.82
2022-07-26T06:16:26.456Z,70.28
2022-07-26T06:18:56.322Z,70.64
2022-07-26T06:21:26.389Z,70.20
2022-07-26T06:23:56.382Z,70.09
2022-07-26T06:26:26.431Z,69.54
2022-07-26T06:28:56.811Z,68.99
2022-07-26T06:31:26.745Z,68.46
2022-07-26T06:33:56.738Z,67.68
2022-07-26T06:36:30.518Z,67.41
2022-07-26T06:39:01.137Z,66.69
2022-07-26T06:41:31.046Z,65.77
2022-07-26T06:44:01.011Z,64.70
2022-07-26T06:46:31.069Z,64.23
2022-07-26T06:49:01.044Z,62.98
2022-07-26T06:51:31.144Z,62.84
2022-07-26T06:54:01.223Z,62.45
2022-07-26T06:56:32.800Z,61.91
2022-07-26T06:59:07.586Z,60.96
2022-07-26T07:01:51.398Z,59.30
2022-07-26T07:04:29.090Z,58.69
2022-07-26T07:07:05.215Z,58.68
2022-07-26T07:09:36.152Z,56.55
2022-07-26T07:12:09.672Z,56.24
2022-07-26T07:14:41.579Z,55.87
2022-07-26T07:17:15.961Z,55.43
2022-07-26T07:19:48.478Z,54.61
2022-07-26T07:22:18.301Z,53.79
2022-07-26T07:24:48.575Z,54.20
2022-07-26T07:27:18.663Z,53.44
2022-07-26T07:29:51.278Z,53.02
2022-07-26T07:32:21.308Z,52.96
2022-07-26T07:34:51.704Z,51.83
2022-07-26T07:37:21.584Z,52.46
2022-07-26T07:39:51.542Z,53.52
2022-07-26T07:42:22.086Z,53.07
2022-07-26T07:44:52.042Z,52.69
2022-07-26T07:47:22.392Z,52.53
2022-07-26T07:49:52.252Z,52.17
2022-07-26T07:52:22.392Z,51.32
2022-07-26T07:54:52.347Z,52.10
2022-07-26T07:57:22.145Z,52.18
2022-07-26T07:59:54.259Z,52.05
2022-07-26T08:02:24.393Z,51.68
2022-07-26T08:04:55.951Z,51.78
2022-07-26T08:07:32.734Z,52.09
2022-07-26T08:10:02.971Z,51.09
2022-07-26T08:12:33.011Z,51.65
2022-07-26T08:15:07.373Z,51.23
2022-07-26T08:17:41.806Z,51.27
2022-07-26T08:20:15.784Z,51.51
2022-07-26T08:22:46.091Z,51.76
2022-07-26T08:25:15.912Z,51.63
2022-07-26T08:28:02.645Z,51.66
2022-07-26T08:30:33.960Z,51.51
2022-07-26T08:33:03.783Z,51.11
2022-07-26T08:35:34.062Z,51.24
2022-07-26T08:38:03.832Z,51.17
2022-07-26T08:40:33.687Z,51.16
2022-07-26T08:43:04.950Z,50.79
2022-07-26T08:45:34.698Z,51.32
2022-07-26T08:48:17.201Z,51.39
2022-07-26T08:50:48.061Z,51.29
2022-07-26T08:53:17.844Z,51.02
2022-07-26T08:56:06.596Z,49.84
2022-07-26T08:58:37.734Z,50.28
2022-07-26T09:01:08.651Z,49.76
2022-07-26T09:03:39.089Z,49.19
2022-07-26T09:06:19.300Z,48.34
2022-07-26T09:08:49.930Z,47.88
2022-07-26T09:11:30.182Z,45.90
2022-07-26T09:14:00.926Z,43.73
2022-07-26T09:16:30.946Z,42.28
2022-07-26T09:19:15.971Z,41.01
2022-07-26T09:21:46.841Z,41.06
2022-07-26T09:24:16.642Z,40.31
2022-07-26T09:26:49.412Z,41.00
2022-07-26T09:29:19.277Z,41.83
2022-07-26T09:31:49.403Z,41.83
2022-07-26T09:34:26.924Z,42.61
2022-07-26T09:36:56.680Z,43.53
2022-07-26T09:39:34.006Z,43.93
2022-07-26T09:44:59.380Z,43.64
2022-07-26T09:47:38.300Z,42.30
2022-07-26T09:50:12.260Z,41.53
2022-07-26T09:52:42.501Z,40.11
2022-07-26T09:55:13.609Z,40.18
2022-07-26T09:57:43.727Z,39.78
2022-07-26T10:00:16.911Z,39.52
2022-07-26T10:02:47.005Z,38.55
2022-07-26T10:05:18.701Z,37.30
2022-07-26T10:07:48.618Z,37.22
2022-07-26T10:10:20.160Z,37.65
2022-07-26T10:12:50.104Z,37.40
2022-07-26T10:15:37.615Z,37.24
2022-07-26T10:18:08.579Z,36.90
2022-07-26T10:20:45.781Z,36.88
2022-07-26T10:23:33.061Z,37.80
2022-07-26T10:26:02.989Z,38.34
2022-07-26T10:28:33.278Z,38.97
2022-07-26T10:31:20.599Z,40.40
2022-07-26T10:33:50.882Z,42.20
2022-07-26T10:36:28.084Z,43.96
2022-07-26T10:39:01.761Z,45.36
2022-07-26T10:41:35.398Z,46.74
2022-07-26T10:44:25.100Z,47.02
2022-07-26T10:47:01.967Z,46.39
2022-07-26T10:49:35.889Z,44.18
2022-07-26T10:52:16.321Z,42.32
2022-07-26T10:55:06.379Z,41.11
2022-07-26T10:57:36.771Z,39.89
2022-07-26T11:00:08.783Z,39.08
2022-07-26T11:02:38.653Z,39.44
2022-07-26T11:05:13.461Z,39.94
2022-07-26T11:07:54.604Z,40.37
2022-07-26T11:10:29.083Z,40.91
2022-07-26T11:13:07.112Z,41.63
2022-07-26T11:15:37.676Z,41.11
2022-07-26T11:18:17.835Z,41.18
2022-07-26T11:20:48.942Z,41.47
2022-07-26T11:23:26.104Z,41.11
2022-07-26T11:26:06.581Z,40.34
2022-07-26T11:28:53.337Z,40.67
2022-07-26T11:31:49.650Z,40.22
2022-07-26T11:34:19.338Z,40.00
2022-07-26T11:36:49.376Z,39.82
2022-07-26T11:39:22.520Z,39.61
2022-07-26T11:41:52.541Z,40.09
2022-07-26T11:44:22.934Z,42.34
2022-07-26T11:46:52.954Z,43.36
2022-07-26T11:49:35.396Z,44.10
2022-07-26T11:52:13.476Z,42.42
2022-07-26T11:54:47.451Z,41.60
2022-07-26T11:57:17.334Z,40.88
2022-07-26T11:59:47.951Z,40.07
2022-07-26T12:02:17.734Z,39.86
2022-07-26T12:04:47.840Z,39.77
2022-07-26T12:07:18.697Z,40.58
2022-07-26T12:09:50.620Z,41.40
2022-07-26T12:12:24.117Z,42.14
2022-07-26T12:15:00.507Z,41.98
2022-07-26T12:17:35.051Z,41.46
2022-07-26T12:20:17.432Z,41.34
2022-07-26T12:22:56.381Z,40.94
2022-07-26T12:25:29.435Z,42.00
2022-07-26T12:27:59.412Z,42.51
2022-07-26T12:30:30.683Z,43.18
2022-07-26T12:33:03.918Z,44.10
2022-07-26T12:35:35.868Z,44.46
2022-07-26T12:38:06.349Z,45.47
2022-07-26T12:40:42.820Z,46.71
2022-07-26T12:43:12.845Z,47.00
2022-07-26T12:45:43.711Z,47.98
2022-07-26T12:48:13.946Z,48.23
2022-07-26T12:50:43.666Z,48.31
2022-07-26T12:53:13.590Z,48.43
2022-07-26T12:55:43.627Z,47.93
2022-07-26T12:58:13.558Z,47.41
2022-07-26T13:00:43.588Z,47.32
2022-07-26T13:03:13.543Z,47.77
2022-07-26T13:05:43.317Z,47.35
2022-07-26T13:08:13.217Z,47.16
2022-07-26T13:10:44.163Z,47.17
2022-07-26T13:13:14.247Z,47.39
2022-07-26T13:15:44.807Z,48.46
2022-07-26T13:18:14.678Z,49.58
2022-07-26T13:20:44.615Z,50.41
2022-07-26T13:23:21.673Z,50.60
2022-07-26T13:25:53.489Z,51.17
2022-07-26T13:28:24.564Z,51.14
2022-07-26T13:30:54.435Z,51.92
2022-07-26T13:33:24.468Z,55.64
2022-07-26T13:35:54.452Z,61.15
2022-07-26T13:38:24.330Z,64.74
2022-07-26T13:40:54.465Z,66.60
2022-07-26T13:43:24.364Z,67.77
2022-07-26T13:45:54.252Z,69.34
2022-07-26T13:48:24.267Z,70.04
2022-07-26T13:50:54.232Z,70.45
2022-07-26T13:53:24.037Z,71.40
2022-07-26T13:55:53.912Z,71.87
2022-07-26T13:58:23.850Z,72.01
2022-07-26T14:00:53.632Z,72.27
2022-07-26T14:03:23.717Z,72.19
2022-07-26T14:05:53.726Z,71.84
2022-07-26T14:08:23.595Z,71.36
2022-07-26T14:10:53.434Z,70.77
2022-07-26T14:13:23.340Z,70.25
2022-07-26T14:15:53.091Z,70.14
2022-07-26T14:18:22.956Z,69.29
2022-07-26T14:20:52.718Z,67.89
2022-07-26T14:23:22.451Z,65.19
2022-07-26T14:25:52.205Z,63.54
2022-07-26T14:28:22.077Z,61.10
2022-07-26T14:30:51.926Z,59.38
2022-07-26T14:33:21.967Z,54.70
2022-07-26T14:35:51.939Z,52.02
2022-07-26T14:38:26.809Z,50.70
2022-07-26T14:41:01.333Z,49.78
2022-07-26T14:43:31.539Z,49.30
2022-07-26T14:46:01.813Z,49.28
2022-07-26T14:48:52.832Z,47.94
2022-07-26T14:51:21.874Z,47.06
2022-07-26T14:53:52.343Z,46.22
2022-07-26T14:56:22.341Z,45.97
2022-07-26T14:58:52.574Z,45.31
2022-07-26T15:01:22.621Z,45.34
2022-07-26T15:03:52.614Z,44.49
2022-07-26T15:06:22.383Z,43.63
2022-07-26T15:08:52.194Z,43.22
2022-07-26T15:11:22.262Z,43.22
2022-07-26T15:13:52.326Z,42.57
2022-07-26T15:16:22.515Z,43.32
2022-07-26T15:18:52.367Z,43.04
2022-07-26T15:21:22.280Z,41.65
2022-07-26T15:23:52.062Z,41.54
2022-07-26T15:26:21.928Z,41.05
2022-07-26T15:28:52.586Z,41.59
2022-07-26T15:31:23.656Z,41.93
2022-07-26T15:34:07.650Z,42.21
2022-07-26T15:36:37.642Z,42.38
2022-07-26T15:39:17.049Z,42.83
2022-07-26T15:41:47.970Z,43.19
2022-07-26T15:44:18.720Z,43.05
2022-07-26T15:46:49.370Z,43.10
2022-07-26T15:49:19.317Z,43.15
2022-07-26T15:51:50.143Z,42.80
2022-07-26T15:54:20.802Z,42.43
2022-07-26T15:56:50.960Z,41.81
2022-07-26T15:59:20.792Z,41.37
2022-07-26T16:01:50.694Z,40.82
2022-07-26T16:04:20.764Z,40.77
2022-07-26T16:06:51.262Z,40.51
2022-07-26T16:09:22.310Z,40.72
2022-07-26T16:11:52.272Z,40.58
2022-07-26T16:14:22.102Z,40.55
2022-07-26T16:16:52.036Z,40.71
2022-07-26T16:19:21.821Z,40.89
2022-07-26T16:21:51.943Z,41.23
2022-07-26T16:24:21.888Z,41.61
2022-07-26T16:26:51.830Z,42.13
2022-07-26T16:29:21.681Z,42.38
2022-07-26T16:31:51.598Z,42.82
2022-07-26T16:34:21.878Z,42.99
2022-07-26T16:36:52.108Z,43.54
2022-07-26T16:39:22.023Z,44.39
2022-07-26T16:41:51.976Z,45.00
2022-07-26T16:44:24.495Z,45.74
2022-07-26T16:46:54.564Z,46.48
2022-07-26T16:49:24.752Z,47.10
2022-07-26T16:51:54.696Z,47.43
2022-07-26T16:54:24.582Z,47.86
2022-07-26T16:56:54.410Z,48.21
2022-07-26T16:59:24.268Z,48.32
2022-07-26T17:01:54.143Z,48.78
2022-07-26T17:04:24.091Z,49.18
2022-07-26T17:07:22.427Z,49.71
2022-07-26T17:09:44.612Z,50.56
2022-07-26T17:12:14.732Z,51.53
2022-07-26T17:14:44.537Z,52.12
2022-07-26T17:17:14.421Z,53.08
2022-07-26T17:19:44.157Z,53.87
2022-07-26T17:22:14.204Z,54.07
2022-07-26T17:24:44.043Z,54.46
2022-07-26T17:27:14.045Z,54.10
2022-07-26T17:29:44.130Z,54.27
2022-07-26T17:32:13.911Z,54.81
2022-07-26T17:34:43.711Z,56.11
2022-07-26T17:37:14.242Z,57.02
2022-07-26T17:39:52.400Z,57.83
2022-07-26T17:42:24.312Z,58.84
2022-07-26T17:44:54.527Z,59.32
2022-07-26T17:47:29.680Z,59.45
2022-07-26T17:50:26.304Z,59.53
2022-07-26T17:52:51.833Z,59.76
2022-07-26T17:55:21.899Z,59.62
2022-07-26T17:57:51.627Z,60.00
2022-07-26T18:00:22.738Z,61.25
2022-07-26T18:02:52.839Z,62.55
2022-07-26T18:05:26.137Z,62.63
2022-07-26T18:08:00.171Z,62.16
2022-07-26T18:10:30.270Z,60.68
2022-07-26T18:13:00.225Z,60.20
2022-07-26T18:15:30.181Z,60.20
2022-07-26T18:18:00.164Z,58.48
2022-07-26T18:20:30.125Z,58.80
2022-07-26T18:23:00.024Z,58.47
2022-07-26T18:25:29.939Z,57.89
2022-07-26T18:28:04.709Z,57.21
2022-07-26T18:30:36.794Z,57.26
2022-07-26T18:33:09.067Z,57.13
2022-07-26T18:35:38.947Z,57.06
2022-07-26T18:38:09.395Z,56.98
2022-07-26T18:40:39.478Z,56.73
2022-07-26T18:43:10.084Z,56.77
2022-07-26T18:45:40.586Z,56.76
2022-07-26T18:48:10.436Z,56.77
2022-07-26T18:50:41.427Z,56.95
2022-07-26T18:53:14.338Z,57.12
2022-07-26T18:55:44.183Z,57.54
2022-07-26T18:58:14.531Z,46.02
2022-07-26T19:00:45.008Z,58.22
2022-07-26T19:03:15.649Z,58.61
2022-07-26T19:05:45.709Z,58.72
2022-07-26T19:08:15.552Z,58.90
2022-07-26T19:10:45.487Z,59.12
2022-07-26T19:13:16.180Z,59.59
2022-07-26T19:15:46.716Z,59.84
2022-07-26T19:18:17.247Z,59.82
2022-07-26T19:20:47.155Z,59.61
2022-07-26T19:23:17.391Z,59.44
2022-07-26T19:25:47.349Z,59.37
2022-07-26T19:28:17.193Z,59.13
2022-07-26T19:30:47.478Z,59.02
2022-07-26T19:33:19.104Z,59.02
2022-07-26T19:35:48.858Z,11.00
2022-07-26T19:38:18.643Z,-1.00
2022-07-26T19:40:48.654Z,-1.00
2022-07-26T19:43:18.830Z,-1.00
2022-07-26T19:45:49.151Z,-1.00
2022-07-26T19:48:18.924Z,-1.00
2022-07-26T19:50:49.001Z,-1.00
2022-07-26T19:53:19.314Z,-1.00
2022-07-26T19:55:49.930Z,-1.00
2022-07-26T19:58:20.061Z,-1.00
2022-07-26T20:00:56.452Z,-1.00
2022-07-26T20:03:26.402Z,-1.00
2022-07-26T20:05:57.186Z,-1.00
2022-07-26T20:08:27.153Z,-1.00
2022-07-26T20:10:57.164Z,-1.00
2022-07-26T20:13:26.955Z,-1.00
2022-07-26T20:15:57.309Z,-1.00
2022-07-26T20:18:28.583Z,-1.00
2022-07-26T20:20:58.545Z,-1.00
2022-07-26T20:23:29.353Z,-1.00
2022-07-26T20:25:59.205Z,-1.00
2022-07-26T20:28:29.097Z,-1.00
2022-07-26T20:30:59.102Z,-1.00
2022-07-26T20:33:29.132Z,-1.00
2022-07-26T20:35:58.983Z,-1.00
2022-07-26T20:38:28.722Z,-1.00
2022-07-26T20:40:58.601Z,-1.00
2022-07-26T20:43:32.197Z,-1.00
2022-07-26T20:46:04.636Z,-1.00
2022-07-26T20:48:34.730Z,-1.00
2022-07-26T20:51:13.596Z,-1.00
2022-07-26T20:53:43.867Z,-1.00
2022-07-26T20:56:13.663Z,-1.00
2022-07-26T20:58:43.530Z,-1.00
2022-07-26T21:01:13.329Z,-1.00
2022-07-26T21:03:43.364Z,-1.00
2022-07-26T21:06:13.146Z,-1.00
2022-07-26T21:08:44.270Z,-1.00
2022-07-26T21:11:14.179Z,-1.00
2022-07-26T21:13:43.976Z,-1.00
2022-07-26T21:16:13.981Z,-1.00
2022-07-26T21:18:44.366Z,-1.00
2022-07-26T21:21:22.646Z,-1.00
2022-07-26T21:23:52.438Z,-1.00
2022-07-26T21:26:22.247Z,-1.00
2022-07-26T21:28:52.052Z,-1.00
2022-07-26T21:31:21.931Z,-1.00
2022-07-26T21:33:51.769Z,-1.00
2022-07-26T21:36:21.572Z,-1.00
2022-07-26T21:38:51.320Z,-1.00
2022-07-26T21:41:21.227Z,-1.00
2022-07-26T21:43:51.060Z,-1.00
2022-07-26T21:46:21.021Z,-1.00
2022-07-26T21:48:51.040Z,-1.00
2022-07-26T21:51:20.932Z,-1.00
2022-07-26T21:53:50.829Z,-1.00
2022-07-26T21:56:20.746Z,-1.00
2022-07-26T21:58:50.526Z,-1.00
2022-07-26T22:01:20.377Z,-1.00
2022-07-26T22:03:50.189Z,-1.00
2022-07-26T22:06:19.927Z,-1.00
2022-07-26T22:08:49.664Z,-1.00
2022-07-26T22:11:19.475Z,-1.00
2022-07-26T22:13:49.777Z,-1.00
2022-07-26T22:16:19.761Z,-1.00
2022-07-26T22:18:49.596Z,-1.00
2022-07-26T22:21:19.494Z,-1.00
2022-07-26T22:23:49.520Z,-1.00
2022-07-26T22:26:21.465Z,-1.00
2022-07-26T22:28:51.203Z,-1.00
2022-07-26T22:31:21.113Z,-1.00
2022-07-26T22:33:51.007Z,-1.00
2022-07-26T22:36:20.705Z,-1.00
2022-07-26T22:38:50.520Z,-1.00
2022-07-26T22:41:20.454Z,-1.00
2022-07-26T22:43:50.887Z,-1.00
2022-07-26T22:46:27.763Z,-1.00
2022-07-26T22:48:59.690Z,-1.00
2022-07-26T22:51:29.749Z,-1.00
2022-07-26T22:53:59.539Z,-1.00
2022-07-26T22:56:29.279Z,-1.00
2022-07-26T22:58:59.234Z,-1.00
2022-07-26T23:01:29.124Z,-1.00
2022-07-26T23:03:59.573Z,-1.00
2022-07-26T23:06:31.817Z,-1.00
2022-07-26T23:09:02.168Z,-1.00
2022-07-26T23:11:33.034Z,-1.00
2022-07-26T23:14:02.841Z,-1.00
2022-07-26T23:16:32.900Z,-1.00
2022-07-26T23:19:02.900Z,-1.00
2022-07-26T23:21:32.817Z,-1.00
2022-07-26T23:24:02.823Z,-1.00
2022-07-26T23:26:32.683Z,-1.00
2022-07-26T23:29:02.667Z,-1.00
2022-07-26T23:31:32.558Z,-1.00
2022-07-26T23:34:02.481Z,-1.00
2022-07-26T23:36:32.292Z,-1.00
2022-07-26T23:39:02.165Z,-1.00
2022-07-26T23:41:31.974Z,-1.00
2022-07-26T23:44:01.777Z,-1.00
2022-07-26T23:46:31.781Z,-1.00
2022-07-26T23:49:01.814Z,-1.00
2022-07-26T23:51:31.975Z,-1.00
2022-07-26T23:54:01.842Z,-1.00
2022-07-26T23:56:31.640Z,-1.00
2022-07-26T23:59:01.424Z,-1.00
